createdAt,value
2022-10-13T00:01:42.018Z,11.37
2022-10-13T00:04:08.418Z,11.33
2022-10-13T00:06:34.928Z,11.34
2022-10-13T00:09:01.402Z,11.38
2022-10-13T00:11:29.648Z,11.38
2022-10-13T00:13:59.211Z,11.41
2022-10-13T00:16:26.939Z,11.41
2022-10-13T00:18:53.729Z,11.38
2022-10-13T00:21:23.377Z,11.39
2022-10-13T00:23:50.945Z,11.35
2022-10-13T00:26:18.207Z,11.38
2022-10-13T00:28:49.754Z,11.41
2022-10-13T00:31:26.991Z,11.44
2022-10-13T00:33:53.873Z,11.50
2022-10-13T00:36:22.352Z,11.54
2022-10-13T00:38:49.310Z,11.50
2022-10-13T00:41:16.143Z,11.44
2022-10-13T00:44:01.335Z,11.59
2022-10-13T00:46:35.725Z,11.67
2022-10-13T00:49:06.574Z,11.64
2022-10-13T00:51:38.243Z,11.60
2022-10-13T00:54:06.939Z,11.63
2022-10-13T00:56:34.835Z,11.61
2022-10-13T00:59:02.545Z,11.60
2022-10-13T01:01:29.033Z,11.60
2022-10-13T01:03:55.442Z,11.58
2022-10-13T01:06:23.877Z,11.66
2022-10-13T01:08:50.686Z,11.77
2022-10-13T01:11:43.708Z,11.81
2022-10-13T01:14:36.519Z,11.86
2022-10-13T01:17:24.575Z,11.76
2022-10-13T01:20:45.057Z,11.74
2022-10-13T01:23:14.421Z,11.80
2022-10-13T01:25:54.316Z,11.77
2022-10-13T01:28:39.516Z,11.85
2022-10-13T01:31:20.374Z,11.92
2022-10-13T01:34:04.122Z,11.98
2022-10-13T01:36:44.877Z,12.01
2022-10-13T01:39:33.822Z,12.06
2022-10-13T01:42:27.665Z,12.03
2022-10-13T01:45:00.203Z,12.08
2022-10-13T01:47:28.857Z,12.10
2022-10-13T01:49:57.197Z,12.10
2022-10-13T01:52:27.754Z,12.14
2022-10-13T01:54:54.580Z,12.16
2022-10-13T01:57:47.261Z,12.17
2022-10-13T02:00:17.820Z,12.21
2022-10-13T02:03:09.313Z,12.24
2022-10-13T02:05:38.915Z,12.27
2022-10-13T02:08:14.542Z,12.29
2022-10-13T02:10:48.759Z,12.27
2022-10-13T02:13:19.619Z,12.27
2022-10-13T02:15:49.274Z,12.26
2022-10-13T02:18:20.264Z,12.26
2022-10-13T02:20:47.766Z,12.23
2022-10-13T02:23:16.845Z,12.24
2022-10-13T02:25:44.394Z,12.26
2022-10-13T02:28:12.725Z,12.29
2022-10-13T02:30:41.226Z,12.26
2022-10-13T02:33:08.912Z,12.25
2022-10-13T02:35:35.705Z,12.25
2022-10-13T02:38:02.316Z,12.25
2022-10-13T02:40:28.781Z,12.24
2022-10-13T02:42:55.249Z,12.26
2022-10-13T02:45:21.811Z,12.22
2022-10-13T02:47:48.433Z,12.23
2022-10-13T02:50:14.949Z,12.27
2022-10-13T02:52:41.421Z,12.30
2022-10-13T02:55:07.955Z,12.30
2022-10-13T02:57:34.744Z,12.33
2022-10-13T03:00:01.212Z,12.31
2022-10-13T03:02:28.601Z,12.33
2022-10-13T03:04:55.044Z,12.38
2022-10-13T03:07:21.636Z,12.36
2022-10-13T03:09:48.342Z,12.35
2022-10-13T03:12:14.855Z,12.32
2022-10-13T03:14:41.319Z,12.31
2022-10-13T03:17:11.128Z,12.28
2022-10-13T03:19:39.981Z,12.24
2022-10-13T03:22:06.470Z,12.23
2022-10-13T03:24:32.931Z,12.21
2022-10-13T03:26:59.395Z,12.25
2022-10-13T03:29:25.928Z,12.26
2022-10-13T03:31:52.445Z,12.26
2022-10-13T03:34:20.293Z,12.27
2022-10-13T03:36:47.223Z,12.28
2022-10-13T03:39:13.821Z,12.30
2022-10-13T03:41:40.279Z,12.31
2022-10-13T03:44:07.591Z,12.29
2022-10-13T03:46:34.228Z,12.31
2022-10-13T03:49:00.848Z,12.30
2022-10-13T03:51:27.278Z,12.27
2022-10-13T03:53:54.047Z,12.24
2022-10-13T03:56:25.072Z,12.24
2022-10-13T03:58:55.319Z,12.22
2022-10-13T04:01:23.273Z,12.22
2022-10-13T04:03:51.896Z,12.23
2022-10-13T04:06:18.366Z,12.26
2022-10-13T04:08:44.922Z,12.26
2022-10-13T04:11:14.082Z,12.29
2022-10-13T04:13:41.478Z,12.27
2022-10-13T04:16:19.486Z,12.30
2022-10-13T04:18:50.678Z,12.29
2022-10-13T04:21:17.146Z,12.30
2022-10-13T04:23:43.564Z,12.32
2022-10-13T04:26:17.019Z,12.37
2022-10-13T04:28:43.885Z,12.39
2022-10-13T04:31:10.402Z,12.38
2022-10-13T04:33:36.844Z,12.34
2022-10-13T04:36:05.421Z,12.33
2022-10-13T04:38:31.894Z,12.31
2022-10-13T04:40:58.354Z,12.30
2022-10-13T04:43:24.833Z,12.27
2022-10-13T04:45:51.301Z,12.29
2022-10-13T04:48:17.697Z,12.28
2022-10-13T04:50:44.167Z,12.28
2022-10-13T04:53:13.227Z,12.27
2022-10-13T04:55:43.172Z,12.28
2022-10-13T04:58:09.577Z,12.31
2022-10-13T05:00:36.065Z,12.34
2022-10-13T05:03:02.492Z,12.34
2022-10-13T05:05:28.907Z,12.31
2022-10-13T05:07:55.350Z,12.29
2022-10-13T05:10:21.808Z,12.29
2022-10-13T05:12:48.233Z,12.30
2022-10-13T05:15:14.753Z,12.30
2022-10-13T05:17:41.208Z,12.29
2022-10-13T05:20:08.386Z,12.26
2022-10-13T05:22:34.816Z,12.25
2022-10-13T05:25:01.255Z,12.24
2022-10-13T05:27:27.776Z,12.26
2022-10-13T05:29:54.177Z,12.28
2022-10-13T05:32:20.927Z,12.28
2022-10-13T05:34:49.117Z,12.31
2022-10-13T05:37:17.084Z,12.32
2022-10-13T05:39:43.725Z,12.32
2022-10-13T05:42:10.934Z,12.31
2022-10-13T05:44:37.480Z,12.34
2022-10-13T05:47:07.525Z,12.32
2022-10-13T05:49:36.402Z,12.31
2022-10-13T05:52:08.852Z,12.31
2022-10-13T05:54:37.710Z,12.31
2022-10-13T05:57:15.020Z,12.32
2022-10-13T05:59:53.427Z,12.34
2022-10-13T06:02:23.281Z,12.29
2022-10-13T06:04:53.937Z,12.32
2022-10-13T06:07:20.513Z,12.35
2022-10-13T06:09:47.190Z,12.36
2022-10-13T06:12:13.684Z,12.41
2022-10-13T06:14:40.113Z,12.43
2022-10-13T06:17:07.703Z,12.43
2022-10-13T06:19:34.177Z,12.43
2022-10-13T06:22:03.633Z,12.41
2022-10-13T06:24:30.645Z,12.39
2022-10-13T06:26:57.370Z,12.39
2022-10-13T06:29:24.094Z,12.37
2022-10-13T06:31:50.526Z,12.40
2022-10-13T06:34:17.002Z,12.43
2022-10-13T06:36:43.436Z,12.46
2022-10-13T06:39:10.334Z,12.45
2022-10-13T06:41:36.882Z,12.39
2022-10-13T06:44:03.491Z,12.36
2022-10-13T06:46:29.983Z,12.30
2022-10-13T06:48:56.614Z,12.28
2022-10-13T06:51:23.022Z,12.26
2022-10-13T06:53:49.524Z,12.27
2022-10-13T06:56:15.934Z,12.26
2022-10-13T06:58:42.471Z,12.29
2022-10-13T07:01:12.635Z,12.28
2022-10-13T07:03:39.205Z,12.31
2022-10-13T07:06:06.417Z,12.33
2022-10-13T07:08:34.022Z,12.32
2022-10-13T07:11:11.635Z,12.35
2022-10-13T07:13:46.149Z,12.39
2022-10-13T07:16:13.386Z,12.38
2022-10-13T07:18:39.843Z,12.41
2022-10-13T07:21:06.805Z,12.40
2022-10-13T07:23:34.112Z,12.41
2022-10-13T07:26:01.741Z,12.42
2022-10-13T07:28:28.757Z,12.44
2022-10-13T07:30:55.525Z,12.47
2022-10-13T07:33:22.097Z,12.51
2022-10-13T07:35:48.617Z,12.53
2022-10-13T07:38:15.118Z,12.58
2022-10-13T07:40:41.622Z,12.62
2022-10-13T07:43:08.263Z,12.64
2022-10-13T07:45:34.820Z,12.68
2022-10-13T07:48:01.323Z,12.71
2022-10-13T07:50:27.830Z,12.73
2022-10-13T07:52:54.355Z,12.78
2022-10-13T07:55:20.791Z,12.79
2022-10-13T07:57:47.273Z,12.81
2022-10-13T08:00:13.948Z,12.85
2022-10-13T08:02:40.459Z,12.86
2022-10-13T08:05:07.170Z,12.87
2022-10-13T08:07:33.656Z,12.87
2022-10-13T08:10:00.203Z,12.90
2022-10-13T08:12:26.662Z,12.91
2022-10-13T08:14:53.137Z,12.92
2022-10-13T08:17:19.767Z,12.92
2022-10-13T08:19:46.397Z,12.98
2022-10-13T08:22:13.171Z,13.01
2022-10-13T08:24:39.602Z,13.03
2022-10-13T08:27:06.003Z,13.10
2022-10-13T08:29:32.470Z,13.11
2022-10-13T08:31:58.950Z,13.09
2022-10-13T08:34:25.748Z,13.09
2022-10-13T08:36:56.076Z,13.05
2022-10-13T08:39:23.731Z,13.05
2022-10-13T08:41:51.108Z,13.05
2022-10-13T08:45:15.799Z,13.09
2022-10-13T08:47:28.137Z,13.14
2022-10-13T08:50:02.406Z,13.24
2022-10-13T08:52:47.940Z,13.28
2022-10-13T08:55:45.245Z,13.28
2022-10-13T08:58:24.703Z,13.30
2022-10-13T09:01:23.772Z,13.31
2022-10-13T09:03:50.250Z,13.34
2022-10-13T09:06:28.769Z,13.42
2022-10-13T09:09:00.676Z,13.42
2022-10-13T09:11:33.891Z,13.41
2022-10-13T09:14:04.140Z,13.50
2022-10-13T09:16:42.306Z,13.60
2022-10-13T09:19:30.192Z,13.68
2022-10-13T09:21:58.771Z,13.68
2022-10-13T09:24:27.247Z,13.71
2022-10-13T09:27:17.764Z,13.71
2022-10-13T09:29:44.732Z,13.72
2022-10-13T09:32:17.006Z,13.74
2022-10-13T09:34:43.933Z,13.78
2022-10-13T09:37:24.929Z,13.83
2022-10-13T09:40:19.750Z,13.91
2022-10-13T09:42:53.533Z,13.95
2022-10-13T09:45:23.130Z,13.99
2022-10-13T09:47:53.185Z,14.06
2022-10-13T09:50:27.767Z,14.07
2022-10-13T09:53:12.094Z,14.07
2022-10-13T09:55:38.554Z,14.03
2022-10-13T09:58:12.322Z,14.03
2022-10-13T10:00:40.031Z,14.05
2022-10-13T10:03:15.975Z,14.13
2022-10-13T10:05:57.045Z,14.15
2022-10-13T10:09:04.553Z,14.22
2022-10-13T10:11:42.377Z,14.27
2022-10-13T10:14:26.285Z,14.29
2022-10-13T10:17:13.778Z,14.31
2022-10-13T10:20:01.350Z,14.34
2022-10-13T10:22:42.974Z,14.37
2022-10-13T10:25:29.899Z,14.42
2022-10-13T10:28:13.597Z,14.56
2022-10-13T10:31:26.789Z,14.62
2022-10-13T10:34:19.579Z,14.59
2022-10-13T10:36:56.269Z,14.63
2022-10-13T10:39:34.546Z,14.68
2022-10-13T10:42:21.242Z,14.70
2022-10-13T10:44:51.001Z,14.76
2022-10-13T10:47:51.523Z,14.66
2022-10-13T10:50:19.125Z,14.61
2022-10-13T10:52:59.406Z,14.52
2022-10-13T10:55:25.762Z,14.51
2022-10-13T10:58:24.274Z,14.50
2022-10-13T11:01:14.363Z,14.45
2022-10-13T11:04:22.032Z,14.45
2022-10-13T11:06:48.490Z,14.40
2022-10-13T11:09:15.009Z,14.37
2022-10-13T11:11:42.830Z,14.37
2022-10-13T11:14:09.209Z,14.40
2022-10-13T11:16:38.783Z,14.40
2022-10-13T11:19:08.419Z,14.46
2022-10-13T11:21:53.140Z,14.48
2022-10-13T11:24:34.940Z,14.57
2022-10-13T11:27:07.482Z,14.59
2022-10-13T11:29:49.180Z,14.62
2022-10-13T11:32:28.082Z,14.64
2022-10-13T11:35:19.692Z,14.65
2022-10-13T11:38:07.213Z,14.61
2022-10-13T11:40:45.039Z,14.61
2022-10-13T11:43:43.274Z,14.54
2022-10-13T11:46:24.757Z,14.49
2022-10-13T11:49:31.055Z,14.42
2022-10-13T11:52:42.600Z,14.39
2022-10-13T11:55:16.854Z,14.32
2022-10-13T11:57:43.394Z,14.28
2022-10-13T12:00:18.734Z,14.28
2022-10-13T12:02:50.752Z,14.30
2022-10-13T12:05:26.025Z,14.21
2022-10-13T12:07:55.624Z,14.17
2022-10-13T12:10:32.438Z,14.17
2022-10-13T12:12:59.534Z,14.17
2022-10-13T12:15:32.034Z,14.23
2022-10-13T12:17:58.694Z,14.24
2022-10-13T12:20:31.195Z,14.27
2022-10-13T12:22:57.727Z,14.21
2022-10-13T12:25:28.234Z,14.15
2022-10-13T12:27:57.790Z,14.16
2022-10-13T12:30:27.962Z,14.22
2022-10-13T12:32:57.300Z,14.22
2022-10-13T12:35:37.216Z,14.23
2022-10-13T12:38:12.256Z,14.24
2022-10-13T12:40:39.146Z,14.27
2022-10-13T12:43:06.255Z,14.26
2022-10-13T12:45:35.261Z,14.23
2022-10-13T12:48:01.773Z,14.16
2022-10-13T12:50:28.209Z,14.12
2022-10-13T12:53:08.541Z,14.15
2022-10-13T12:55:45.226Z,14.22
2022-10-13T12:58:20.537Z,14.20
2022-10-13T13:00:55.746Z,14.19
2022-10-13T13:03:27.967Z,14.09
2022-10-13T13:06:12.905Z,14.09
2022-10-13T13:08:41.834Z,14.11
2022-10-13T13:11:21.939Z,14.11
2022-10-13T13:13:48.674Z,14.15
2022-10-13T13:16:15.162Z,14.14
2022-10-13T13:18:43.662Z,14.08
2022-10-13T13:21:13.864Z,14.11
2022-10-13T13:23:40.749Z,14.14
2022-10-13T13:26:18.754Z,14.20
2022-10-13T13:28:53.896Z,14.21
2022-10-13T13:31:23.044Z,14.20
2022-10-13T13:33:50.270Z,14.28
2022-10-13T13:36:25.382Z,14.34
2022-10-13T13:38:53.136Z,14.47
2022-10-13T13:41:20.118Z,14.55
2022-10-13T13:43:46.907Z,14.66
2022-10-13T13:46:19.536Z,14.68
2022-10-13T13:48:46.077Z,14.74
2022-10-13T13:51:12.588Z,14.69
2022-10-13T13:53:39.130Z,14.62
2022-10-13T13:56:05.723Z,14.59
2022-10-13T13:58:32.195Z,14.65
2022-10-13T14:00:59.798Z,14.70
2022-10-13T14:03:26.288Z,14.79
2022-10-13T14:05:52.822Z,14.77
2022-10-13T14:08:19.565Z,14.70
2022-10-13T14:10:46.029Z,14.69
2022-10-13T14:13:12.461Z,14.69
2022-10-13T14:15:38.880Z,14.70
2022-10-13T14:18:05.377Z,14.71
2022-10-13T14:20:31.866Z,14.66
2022-10-13T14:22:58.290Z,14.63
2022-10-13T14:25:25.081Z,14.59
2022-10-13T14:27:51.613Z,14.54
2022-10-13T14:30:18.226Z,14.58
2022-10-13T14:32:44.674Z,14.61
2022-10-13T14:35:11.284Z,14.64
2022-10-13T14:37:37.976Z,14.64
2022-10-13T14:40:05.050Z,14.64
2022-10-13T14:42:31.531Z,14.61
2022-10-13T14:44:57.984Z,14.56
2022-10-13T14:47:24.679Z,14.51
2022-10-13T14:49:51.114Z,14.48
2022-10-13T14:52:17.615Z,14.45
2022-10-13T14:54:45.144Z,14.44
2022-10-13T14:57:15.693Z,14.42
2022-10-13T14:59:42.982Z,14.43
2022-10-13T15:02:11.532Z,14.38
2022-10-13T15:04:37.962Z,14.39
2022-10-13T15:07:04.859Z,14.41
2022-10-13T15:09:45.008Z,14.41
2022-10-13T15:12:18.327Z,14.47
2022-10-13T15:14:45.051Z,14.46
2022-10-13T15:17:11.491Z,14.45
2022-10-13T15:19:37.915Z,14.45
2022-10-13T15:22:04.408Z,14.44
2022-10-13T15:24:30.830Z,14.44
2022-10-13T15:26:57.261Z,14.42
2022-10-13T15:29:23.850Z,14.41
2022-10-13T15:31:50.259Z,14.39
2022-10-13T15:34:16.658Z,14.37
2022-10-13T15:36:43.101Z,14.37
2022-10-13T15:39:10.853Z,14.37
2022-10-13T15:41:37.291Z,14.38
2022-10-13T15:44:03.949Z,14.37
2022-10-13T15:46:31.542Z,14.37
2022-10-13T15:48:59.861Z,14.35
2022-10-13T15:51:27.077Z,14.35
2022-10-13T15:53:55.150Z,14.34
2022-10-13T15:56:21.979Z,14.36
2022-10-13T15:58:48.445Z,14.36
2022-10-13T16:01:15.150Z,14.34
2022-10-13T16:03:41.976Z,14.31
2022-10-13T16:06:11.266Z,14.30
2022-10-13T16:08:39.678Z,14.28
2022-10-13T16:11:14.782Z,14.28
2022-10-13T16:13:44.948Z,14.28
2022-10-13T16:16:11.610Z,14.30
2022-10-13T16:18:39.051Z,14.32
2022-10-13T16:21:18.771Z,14.31
2022-10-13T16:23:46.394Z,14.29
2022-10-13T16:26:12.931Z,14.26
2022-10-13T16:28:39.508Z,14.22
2022-10-13T16:31:10.234Z,14.22
2022-10-13T16:33:37.325Z,14.16
2022-10-13T16:36:05.691Z,14.16
2022-10-13T16:38:32.478Z,14.15
2022-10-13T16:40:58.909Z,14.12
2022-10-13T16:43:25.415Z,14.14
2022-10-13T16:46:00.101Z,14.14
2022-10-13T16:48:27.630Z,14.13
2022-10-13T16:50:54.111Z,14.10
2022-10-13T16:53:20.719Z,14.06
2022-10-13T16:55:47.235Z,14.06
2022-10-13T16:58:13.747Z,14.04
2022-10-13T17:00:40.469Z,14.02
2022-10-13T17:03:07.342Z,14.01
2022-10-13T17:05:34.242Z,13.96
2022-10-13T17:08:00.685Z,13.94
2022-10-13T17:10:27.282Z,13.93
2022-10-13T17:12:54.519Z,13.95
2022-10-13T17:15:21.064Z,13.95
2022-10-13T17:17:47.520Z,13.94
2022-10-13T17:20:14.028Z,13.95
2022-10-13T17:22:40.733Z,13.96
2022-10-13T17:25:07.809Z,13.94
2022-10-13T17:27:36.177Z,13.92
2022-10-13T17:30:04.276Z,13.93
2022-10-13T17:32:30.738Z,13.91
2022-10-13T17:34:57.217Z,13.89
2022-10-13T17:37:24.106Z,13.88
2022-10-13T17:39:50.636Z,13.86
2022-10-13T17:42:17.058Z,13.83
2022-10-13T17:44:43.521Z,13.79
2022-10-13T17:47:09.978Z,13.70
2022-10-13T17:49:37.068Z,13.60
2022-10-13T17:52:03.605Z,13.49
2022-10-13T17:54:30.114Z,13.45
2022-10-13T17:56:59.376Z,13.42
2022-10-13T17:59:25.864Z,13.38
2022-10-13T18:01:52.354Z,13.36
2022-10-13T18:04:19.491Z,13.31
2022-10-13T18:06:46.230Z,13.33
2022-10-13T18:09:18.635Z,13.24
2022-10-13T18:11:50.160Z,13.11
2022-10-13T18:14:23.383Z,13.00
2022-10-13T18:16:51.151Z,12.91
2022-10-13T18:19:18.054Z,12.90
2022-10-13T18:21:44.549Z,12.83
2022-10-13T18:24:11.728Z,12.79
2022-10-13T18:26:38.600Z,12.77
2022-10-13T18:29:07.334Z,12.72
2022-10-13T18:31:36.157Z,12.69
2022-10-13T18:34:06.421Z,12.66
2022-10-13T18:36:38.532Z,12.63
2022-10-13T18:39:26.395Z,12.57
2022-10-13T18:41:54.961Z,12.55
2022-10-13T18:44:23.164Z,12.55
2022-10-13T18:46:51.121Z,12.58
2022-10-13T18:49:19.173Z,12.56
2022-10-13T18:51:46.822Z,12.54
2022-10-13T18:54:13.551Z,12.51
2022-10-13T18:56:40.094Z,12.46
2022-10-13T18:59:08.352Z,12.45
2022-10-13T19:01:36.696Z,12.45
2022-10-13T19:04:04.465Z,12.43
2022-10-13T19:06:32.411Z,12.43
2022-10-13T19:09:04.832Z,12.40
2022-10-13T19:11:32.415Z,12.40
2022-10-13T19:14:00.603Z,12.42
2022-10-13T19:16:29.318Z,12.40
2022-10-13T19:18:56.301Z,12.32
2022-10-13T19:21:24.443Z,12.26
2022-10-13T19:23:51.607Z,12.23
2022-10-13T19:26:21.627Z,12.21
2022-10-13T19:28:48.203Z,12.20
2022-10-13T19:31:21.257Z,12.16
2022-10-13T19:33:49.852Z,12.10
2022-10-13T19:36:38.832Z,12.11
2022-10-13T19:39:11.557Z,12.14
2022-10-13T19:41:38.310Z,12.15
2022-10-13T19:44:04.972Z,12.16
2022-10-13T19:46:32.724Z,12.16
2022-10-13T19:48:59.229Z,12.14
2022-10-13T19:51:25.683Z,12.07
2022-10-13T19:53:52.127Z,12.06
2022-10-13T19:56:21.289Z,12.04
2022-10-13T19:58:47.879Z,12.11
2022-10-13T20:01:14.435Z,12.11
2022-10-13T20:03:40.896Z,12.10
2022-10-13T20:06:07.430Z,12.08
2022-10-13T20:08:33.954Z,12.05
2022-10-13T20:11:06.133Z,12.00
2022-10-13T20:13:32.552Z,12.03
2022-10-13T20:15:58.969Z,12.10
2022-10-13T20:18:25.389Z,12.07
2022-10-13T20:20:51.882Z,12.11
2022-10-13T20:23:18.290Z,12.14
2022-10-13T20:25:44.994Z,12.15
2022-10-13T20:28:11.431Z,12.12
2022-10-13T20:30:39.666Z,12.12
2022-10-13T20:33:06.189Z,12.14
2022-10-13T20:35:32.696Z,12.14
2022-10-13T20:37:59.153Z,12.22
2022-10-13T20:40:25.693Z,12.23
2022-10-13T20:42:52.754Z,12.22
2022-10-13T20:45:19.434Z,12.23
2022-10-13T20:47:46.908Z,12.23
2022-10-13T20:50:13.952Z,12.22
2022-10-13T20:52:40.361Z,12.25
2022-10-13T20:55:07.095Z,12.16
2022-10-13T20:57:33.583Z,12.10
2022-10-13T21:00:00.044Z,12.05
2022-10-13T21:02:26.514Z,12.03
2022-10-13T21:04:53.000Z,12.04
2022-10-13T21:07:19.806Z,12.06
2022-10-13T21:09:50.203Z,12.04
2022-10-13T21:12:19.289Z,12.03
2022-10-13T21:14:45.747Z,12.03
2022-10-13T21:17:12.216Z,12.01
2022-10-13T21:19:39.835Z,11.97
2022-10-13T21:22:06.264Z,12.01
2022-10-13T21:24:32.777Z,12.01
2022-10-13T21:26:59.202Z,12.00
2022-10-13T21:29:25.683Z,12.01
2022-10-13T21:31:52.557Z,11.96
2022-10-13T21:34:19.062Z,11.90
2022-10-13T21:36:45.714Z,11.93
2022-10-13T21:39:12.251Z,11.89
2022-10-13T21:41:38.939Z,11.80
2022-10-13T21:44:05.353Z,11.87
2022-10-13T21:46:34.093Z,11.86
2022-10-13T21:49:04.623Z,11.84
2022-10-13T21:51:34.399Z,11.88
2022-10-13T21:54:03.641Z,11.78
2022-10-13T21:56:30.814Z,11.71
2022-10-13T21:58:57.330Z,11.66
2022-10-13T22:01:24.469Z,11.66
2022-10-13T22:03:56.724Z,11.68
2022-10-13T22:06:24.225Z,11.62
2022-10-13T22:08:52.596Z,11.64
2022-10-13T22:11:20.193Z,11.58
2022-10-13T22:13:46.781Z,11.47
2022-10-13T22:16:16.759Z,11.54
2022-10-13T22:18:43.838Z,11.55
2022-10-13T22:21:20.207Z,11.52
2022-10-13T22:23:47.717Z,11.50
2022-10-13T22:26:15.730Z,11.42
2022-10-13T22:28:42.745Z,11.40
2022-10-13T22:31:11.652Z,11.46
2022-10-13T22:33:41.534Z,11.46
2022-10-13T22:36:16.047Z,11.41
2022-10-13T22:38:43.779Z,11.36
2022-10-13T22:41:11.010Z,11.37
2022-10-13T22:43:37.589Z,11.35
2022-10-13T22:46:04.365Z,11.35
2022-10-13T22:48:31.042Z,11.32
2022-10-13T22:50:57.692Z,11.26
2022-10-13T22:53:24.169Z,11.21
2022-10-13T22:55:50.615Z,11.18
2022-10-13T22:58:17.094Z,11.26
2022-10-13T23:00:43.508Z,11.27
2022-10-13T23:03:13.278Z,11.28
2022-10-13T23:05:45.978Z,11.27
2022-10-13T23:08:12.538Z,11.26
2022-10-13T23:10:39.026Z,11.23
2022-10-13T23:13:06.226Z,11.16
2022-10-13T23:15:32.917Z,11.12
2022-10-13T23:17:59.349Z,11.13
2022-10-13T23:20:25.819Z,11.16
2022-10-13T23:22:52.300Z,11.13
2022-10-13T23:25:18.769Z,11.12
2022-10-13T23:27:45.200Z,11.17
2022-10-13T23:30:12.378Z,11.15
2022-10-13T23:32:38.875Z,11.09
2022-10-13T23:35:05.703Z,11.04
2022-10-13T23:37:32.414Z,11.08
2022-10-13T23:39:58.899Z,11.08
2022-10-13T23:42:25.329Z,11.14
2022-10-13T23:44:51.769Z,11.16
2022-10-13T23:47:18.418Z,11.18
2022-10-13T23:49:45.540Z,11.17
2022-10-13T23:52:12.012Z,11.10
2022-10-13T23:54:38.445Z,11.09
2022-10-13T23:57:04.903Z,11.17
2022-10-13T23:59:31.354Z,11.15
